Huvudsida
METAR-TAF:

METAR-TAF

Flygplatser :

Kalmar, Sverige

Kalmar Öland Airport

latitud: 56-44N, longitud: 016-18E, höjd: 16 m

Aktuellt väderrapport

Denna rapport gjordes för 32 minuter sedan, klockan 10:20 UTC
Vind 4 kt från väst/sydväst
Temperatur 2°C
Fuktighet 93%
Tryck 986 hPa
Sikt 10 km eller mer
Få moln på en höjd av 800 ft
Brutna moln på en höjd av 2400 ft

METAR: ESMQ 171020Z 24004KT 9999 FEW008 BKN024 02/01 Q0986

Tid: 11:52 (10:52 UTC)

Väderprognos

Denna rapport gjordes för 2 timmar och 22 minuter sedan, klockan 08:30 UTC
Prognos gäller från 17 kl. 09 UTC till 17 kl. 18 UTC
Vind 5 kt från sydväst
Sikt 10 km eller mer
Spridda moln på en höjd av 1000 ft
Brutna moln på en höjd av 2000 ft
Sannolikhet 40%
från 17 kl. 09 UTC till 17 kl. 14 UTC
Sikt: 4000 m
Brutna moln på en höjd av 1000 ft
fuktdis

TAF: ESMQ 170830Z 1709/1718 23005KT 9999 SCT010 BKN020 PROB40 1709/1714 4000 BR BKN010

Aktuella väderrapporter och prognoser från 4000 flygplatser (METAR- och TAF-rapporter).

De tillgängliga stationerna syns som gula och röda prickar på kartan.

För musen över prickarna för att se namnen på stationerna.

Klicka sedan för att få väderrapporter och prognoser.

För att ändra kartan: Klicka på de gröna knapparna med ett svart kors på för att zooma in; den gröna knappen med ett streck på för att zooma ut; eller på de gröna pilarna för angränsande kartor.


METAR-TAF: